Time;durP1;ratioP1;P1;durP2;ratioP2;P2;SDS_P1;SDS_P2;PMS_P1;PMS_P2;Temp;Humidity;BMP_temperature;BMP_pressure;BME280_temperature;BME280_humidity;BME280_pressure;Samples;Min_cycle;Max_cycle;Signal;HPM_P1;HPM_P2
2023/01/20 00:01:10;;;;;;;;;;;;;;;;;;5037198;28;19920;-76
2023/01/20 00:03:36;;;;;;;;;;;;;;;;;;5036839;28;19909;-76
2023/01/20 00:06:02;;;;;;;;;;;;;;;;;;5035309;28;20288;-76
2023/01/20 00:08:28;;;;;;;;;;;;;;;;;;5036623;28;20389;-76
2023/01/20 00:10:54;;;;;;;;;;;;;;;;;;5036682;28;19909;-76
2023/01/20 00:13:20;;;;;;;;;;;;;;;;;;5036517;28;20416;-76
2023/01/20 00:15:47;;;;;;;;;;;;;;;;;;5036431;28;19932;-76
2023/01/20 00:18:13;;;;;;;;;;;;;;;;;;5035426;28;19913;-76
2023/01/20 00:20:39;;;;;;;;;;;;;;;;;;5035284;28;20293;-76
2023/01/20 00:23:04;;;;;;;;;;;;;;;;;;5035121;28;20297;-76
2023/01/20 00:25:30;;;;;;;;;;;;;;;;;;5036513;28;20381;-76
2023/01/20 00:27:57;;;;;;;;;;;;;;;;;;5036432;28;20289;-76
2023/01/20 00:30:22;;;;;;;;;;;;;;;;;;5036347;28;19913;-76
2023/01/20 00:32:48;;;;;;;;;;;;;;;;;;5036666;28;20295;-76
2023/01/20 00:35:14;;;;;;;;;;;;;;;;;;5036085;28;20392;-76
2023/01/20 00:37:40;;;;;;;;;;;;;;;;;;5036518;28;19958;-76
2023/01/20 00:40:06;;;;;;;;;;;;;;;;;;5035874;28;20008;-76
2023/01/20 00:42:32;;;;;;;;;;;;;;;;;;5036450;28;20022;-76
2023/01/20 00:44:58;;;;;;;;;;;;;;;;;;5036216;28;20300;-76
2023/01/20 00:47:24;;;;;;;;;;;;;;;;;;5036038;28;20480;-77
2023/01/20 00:49:50;;;;;;;;;;;;;;;;;;5036180;28;19913;-76
2023/01/20 00:52:17;;;;;;;;;;;;;;;;;;5035867;28;19916;-76
2023/01/20 00:54:43;;;;;;;;;;;;;;;;;;5036245;28;19916;-76
2023/01/20 00:57:09;;;;;;;;;;;;;;;;;;5035966;28;19913;-76
2023/01/20 00:59:35;;;;;;;;;;;;;;;;;;5034490;28;19944;-76
2023/01/20 01:02:01;;;;;;;;;;;;;;;;;;5035652;28;19909;-76
2023/01/20 01:04:27;;;;;;;;;;;;;;;;;;5035671;28;20003;-76
2023/01/20 01:06:53;;;;;;;;;;;;;;;;;;5035825;28;20393;-76
2023/01/20 01:09:20;;;;;;;;;;;;;;;;;;5034442;28;19910;-76
2023/01/20 01:11:46;;;;;;;;;;;;;;;;;;5035503;28;19909;-75
2023/01/20 01:14:12;;;;;;;;;;;;;;;;;;5034385;28;19909;-76
2023/01/20 01:16:38;;;;;;;;;;;;;;;;;;5035462;28;19916;-76
2023/01/20 01:19:04;;;;;;;;;;;;;;;;;;5035581;28;19909;-76
2023/01/20 01:21:30;;;;;;;;;;;;;;;;;;5033974;28;19917;-76
2023/01/20 01:23:56;;;;;;;;;;;;;;;;;;5035393;28;20273;-76
2023/01/20 01:26:22;;;;;;;;;;;;;;;;;;5035906;28;20272;-77
2023/01/20 01:28:48;;;;;;;;;;;;;;;;;;5035509;28;19959;-76
2023/01/20 01:31:13;;;;;;;;;;;;;;;;;;5035081;28;19915;-76
2023/01/20 01:33:39;;;;;;;;;;;;;;;;;;5035155;28;19963;-76
2023/01/20 01:36:07;;;;;;;;;;;;;;;;;;5035261;28;19957;-76
2023/01/20 01:38:33;;;;;;;;;;;;;;;;;;5033560;28;20004;-76
2023/01/20 01:40:59;;;;;;;;;;;;;;;;;;5034588;28;19991;-76
2023/01/20 01:43:25;;;;;;;;;;;;;;;;;;5034990;28;20281;-76
2023/01/20 01:45:51;;;;;;;;;;;;;;;;;;5034936;28;20396;-77
2023/01/20 01:48:16;;;;;;;;;;;;;;;;;;5034236;28;20008;-76
2023/01/20 01:50:44;;;;;;;;;;;;;;;;;;5034856;28;19913;-76
2023/01/20 01:53:10;;;;;;;;;;;;;;;;;;5034895;28;19913;-76
2023/01/20 01:55:36;;;;;;;;;;;;;;;;;;5034859;28;19970;-76
2023/01/20 01:58:02;;;;;;;;;;;;;;;;;;5033347;28;20269;-77
2023/01/20 02:00:28;;;;;;;;;;;;;;;;;;5034711;28;19932;-76
2023/01/20 02:02:54;;;;;;;;;;;;;;;;;;5034594;28;19909;-76
2023/01/20 02:05:20;;;;;;;;;;;;;;;;;;5034463;28;20292;-76
2023/01/20 02:07:46;;;;;;;;;;;;;;;;;;5033142;28;19959;-76
2023/01/20 02:10:12;;;;;;;;;;;;;;;;;;5034533;28;19924;-76
2023/01/20 02:12:37;;;;;;;;;;;;;;;;;;5034445;28;19916;-76
2023/01/20 02:15:03;;;;;;;;;;;;;;;;;;5034627;28;20285;-76
2023/01/20 02:17:29;;;;;;;;;;;;;;;;;;5034697;28;19921;-76
2023/01/20 02:19:55;;;;;;;;;;;;;;;;;;5034432;28;19967;-76
2023/01/20 02:22:21;;;;;;;;;;;;;;;;;;5034406;28;20335;-76
2023/01/20 02:24:47;;;;;;;;;;;;;;;;;;5034384;28;19909;-76
2023/01/20 02:27:13;;;;;;;;;;;;;;;;;;5032893;28;20300;-76
2023/01/20 02:29:39;;;;;;;;;;;;;;;;;;5033048;28;19913;-76
2023/01/20 02:32:05;;;;;;;;;;;;;;;;;;5034227;28;19909;-76
2023/01/20 02:34:31;;;;;;;;;;;;;;;;;;5034060;28;20007;-76
2023/01/20 02:36:57;;;;;;;;;;;;;;;;;;5034537;28;19960;-76
2023/01/20 02:39:23;;;;;;;;;;;;;;;;;;5034030;28;19921;-76
2023/01/20 02:41:49;;;;;;;;;;;;;;;;;;5032631;28;19962;-76
2023/01/20 02:44:15;;;;;;;;;;;;;;;;;;5032987;28;19916;-76
2023/01/20 02:46:41;;;;;;;;;;;;;;;;;;5034090;28;19920;-76
2023/01/20 02:49:07;;;;;;;;;;;;;;;;;;5034101;28;19909;-76
2023/01/20 02:51:33;;;;;;;;;;;;;;;;;;5034210;28;19963;-76
2023/01/20 02:53:58;;;;;;;;;;;;;;;;;;5034426;28;20377;-76
2023/01/20 02:56:24;;;;;;;;;;;;;;;;;;5033963;28;19996;-76
2023/01/20 02:58:50;;;;;;;;;;;;;;;;;;5034348;28;19909;-76
2023/01/20 03:01:16;;;;;;;;;;;;;;;;;;5037324;28;19955;-76
2023/01/20 03:03:42;;;;;;;;;;;;;;;;;;5038197;28;19909;-76
2023/01/20 03:06:08;;;;;;;;;;;;;;;;;;5037818;28;19919;-76
2023/01/20 03:08:34;;;;;;;;;;;;;;;;;;5037808;28;19944;-76
2023/01/20 03:11:00;;;;;;;;;;;;;;;;;;5037947;28;19925;-76
2023/01/20 03:13:26;;;;;;;;;;;;;;;;;;5037642;28;19909;-76
2023/01/20 03:15:52;;;;;;;;;;;;;;;;;;5037772;28;20007;-77
2023/01/20 03:18:18;;;;;;;;;;;;;;;;;;5037833;28;19998;-77
2023/01/20 03:20:44;;;;;;;;;;;;;;;;;;5037680;28;19913;-76
2023/01/20 03:23:10;;;;;;;;;;;;;;;;;;5037520;28;20289;-76
2023/01/20 03:25:37;;;;;;;;;;;;;;;;;;5037363;28;19924;-76
2023/01/20 03:28:03;;;;;;;;;;;;;;;;;;5037541;28;19916;-76
2023/01/20 03:30:29;;;;;;;;;;;;;;;;;;5037538;28;20296;-76
2023/01/20 03:32:55;;;;;;;;;;;;;;;;;;5037446;28;20373;-76
2023/01/20 03:35:21;;;;;;;;;;;;;;;;;;5037779;28;20012;-76
2023/01/20 03:37:47;;;;;;;;;;;;;;;;;;5037503;28;19916;-76
2023/01/20 03:40:13;;;;;;;;;;;;;;;;;;5036994;28;19921;-76
2023/01/20 03:42:39;;;;;;;;;;;;;;;;;;5037203;28;20385;-76
2023/01/20 03:45:05;;;;;;;;;;;;;;;;;;5037346;28;19916;-77
2023/01/20 03:47:31;;;;;;;;;;;;;;;;;;5037505;28;19910;-76
2023/01/20 03:49:57;;;;;;;;;;;;;;;;;;5037124;28;20394;-77
2023/01/20 03:52:23;;;;;;;;;;;;;;;;;;5037205;28;19910;-76
2023/01/20 03:54:49;;;;;;;;;;;;;;;;;;5036955;28;19916;-76
2023/01/20 03:57:15;;;;;;;;;;;;;;;;;;5037039;28;19996;-77
2023/01/20 03:59:40;;;;;;;;;;;;;;;;;;5036836;28;20332;-76
2023/01/20 04:02:06;;;;;;;;;;;;;;;;;;5036866;28;19909;-76
2023/01/20 04:04:32;;;;;;;;;;;;;;;;;;5036832;28;19909;-76
2023/01/20 04:06:58;;;;;;;;;;;;;;;;;;5037002;28;19967;-76
2023/01/20 04:09:24;;;;;;;;;;;;;;;;;;5035359;28;19909;-77
2023/01/20 04:11:50;;;;;;;;;;;;;;;;;;5036406;28;19913;-77
2023/01/20 04:14:16;;;;;;;;;;;;;;;;;;5036703;28;19909;-77
2023/01/20 04:16:42;;;;;;;;;;;;;;;;;;5036813;28;19917;-76
2023/01/20 04:19:08;;;;;;;;;;;;;;;;;;5036571;28;19909;-76
2023/01/20 04:21:34;;;;;;;;;;;;;;;;;;5036523;28;19909;-76
2023/01/20 04:24:00;;;;;;;;;;;;;;;;;;5036596;28;19968;-77
2023/01/20 04:26:26;;;;;;;;;;;;;;;;;;5036358;28;20443;-76
2023/01/20 04:28:52;;;;;;;;;;;;;;;;;;5036702;28;20288;-76
2023/01/20 04:31:17;;;;;;;;;;;;;;;;;;5036417;28;19916;-76
2023/01/20 04:33:43;;;;;;;;;;;;;;;;;;5036542;28;19909;-76
2023/01/20 04:36:09;;;;;;;;;;;;;;;;;;5036283;28;20004;-76
2023/01/20 04:38:35;;;;;;;;;;;;;;;;;;5036475;28;19920;-76
2023/01/20 04:41:01;;;;;;;;;;;;;;;;;;5035837;28;19921;-77
2023/01/20 04:43:27;;;;;;;;;;;;;;;;;;5036475;28;19959;-76
2023/01/20 04:45:53;;;;;;;;;;;;;;;;;;5036060;28;19913;-76
2023/01/20 04:48:19;;;;;;;;;;;;;;;;;;5034904;28;19909;-76
2023/01/20 04:50:45;;;;;;;;;;;;;;;;;;5036055;28;20376;-76
2023/01/20 04:53:12;;;;;;;;;;;;;;;;;;5034663;28;20396;-76
2023/01/20 04:55:38;;;;;;;;;;;;;;;;;;5035714;28;19917;-76
2023/01/20 04:58:04;;;;;;;;;;;;;;;;;;5035824;28;19913;-76
2023/01/20 05:00:30;;;;;;;;;;;;;;;;;;5035812;28;20297;-76
2023/01/20 05:02:56;;;;;;;;;;;;;;;;;;5036090;28;19909;-77
2023/01/20 05:05:22;;;;;;;;;;;;;;;;;;5035625;28;19913;-76
2023/01/20 05:07:48;;;;;;;;;;;;;;;;;;5035826;28;20336;-76
2023/01/20 05:10:13;;;;;;;;;;;;;;;;;;5035566;28;20366;-77
2023/01/20 05:12:40;;;;;;;;;;;;;;;;;;5035917;28;19937;-77
2023/01/20 05:15:06;;;;;;;;;;;;;;;;;;5035693;28;19932;-76
2023/01/20 05:17:31;;;;;;;;;;;;;;;;;;5035653;28;20369;-77
2023/01/20 05:19:57;;;;;;;;;;;;;;;;;;5034130;28;19909;-76
2023/01/20 05:22:23;;;;;;;;;;;;;;;;;;5034266;28;19912;-76
2023/01/20 05:24:49;;;;;;;;;;;;;;;;;;5035506;28;19971;-77
2023/01/20 05:27:15;;;;;;;;;;;;;;;;;;5035326;28;19913;-76
2023/01/20 05:29:41;;;;;;;;;;;;;;;;;;5035166;28;19913;-77
2023/01/20 05:32:07;;;;;;;;;;;;;;;;;;5033627;28;19916;-77
2023/01/20 05:34:33;;;;;;;;;;;;;;;;;;5035022;28;20290;-76
2023/01/20 05:36:59;;;;;;;;;;;;;;;;;;5035080;28;20399;-76
2023/01/20 05:39:25;;;;;;;;;;;;;;;;;;5035132;28;19924;-76
2023/01/20 05:41:51;;;;;;;;;;;;;;;;;;5035312;28;19948;-76
2023/01/20 05:44:17;;;;;;;;;;;;;;;;;;5035073;28;19916;-76
2023/01/20 05:46:43;;;;;;;;;;;;;;;;;;5034812;28;19921;-76
2023/01/20 05:49:09;;;;;;;;;;;;;;;;;;5034830;28;20289;-76
2023/01/20 05:51:35;;;;;;;;;;;;;;;;;;5034882;28;19909;-76
2023/01/20 05:54:01;;;;;;;;;;;;;;;;;;5034911;28;20407;-76
2023/01/20 05:56:26;;;;;;;;;;;;;;;;;;5034845;28;19910;-76
2023/01/20 05:58:52;;;;;;;;;;;;;;;;;;5034693;28;19963;-76
2023/01/20 06:01:18;;;;;;;;;;;;;;;;;;5034890;28;19955;-76
2023/01/20 06:03:44;;;;;;;;;;;;;;;;;;5034660;28;19909;-76
2023/01/20 06:06:14;;;;;;;;;;;;;;;;;;5034818;28;19932;-76
2023/01/20 06:08:40;;;;;;;;;;;;;;;;;;5034669;28;19913;-76
2023/01/20 06:11:06;;;;;;;;;;;;;;;;;;5034744;28;19948;-75
2023/01/20 06:13:34;;;;;;;;;;;;;;;;;;5035014;28;20365;-76
2023/01/20 06:16:00;;;;;;;;;;;;;;;;;;5033074;28;20372;-76
2023/01/20 06:18:25;;;;;;;;;;;;;;;;;;5033090;28;20002;-77
2023/01/20 06:20:51;;;;;;;;;;;;;;;;;;5034397;28;19913;-76
2023/01/20 06:23:17;;;;;;;;;;;;;;;;;;5034548;28;19959;-76
2023/01/20 06:25:43;;;;;;;;;;;;;;;;;;5033269;28;19920;-76
2023/01/20 06:28:09;;;;;;;;;;;;;;;;;;5033047;28;19909;-76
2023/01/20 06:30:35;;;;;;;;;;;;;;;;;;5034424;28;20447;-76
2023/01/20 06:33:01;;;;;;;;;;;;;;;;;;5034291;28;19910;-77
2023/01/20 06:35:27;;;;;;;;;;;;;;;;;;5032917;28;19959;-76
2023/01/20 06:37:53;;;;;;;;;;;;;;;;;;5034445;28;19909;-76
2023/01/20 06:40:19;;;;;;;;;;;;;;;;;;5033801;28;19979;-76
2023/01/20 06:43:02;;;;;;;;;;;;;;;;;;5021860;28;20208;-77
2023/01/20 06:45:28;;;;;;;;;;;;;;;;;;5034172;28;19918;-76
2023/01/20 06:47:54;;;;;;;;;;;;;;;;;;5034035;28;19916;-76
2023/01/20 06:50:20;;;;;;;;;;;;;;;;;;5034123;28;19913;-76
2023/01/20 06:52:46;;;;;;;;;;;;;;;;;;5033690;28;19953;-76
2023/01/20 06:55:12;;;;;;;;;;;;;;;;;;5034098;28;19913;-76
2023/01/20 06:57:38;;;;;;;;;;;;;;;;;;5034325;28;19916;-76
2023/01/20 07:00:03;;;;;;;;;;;;;;;;;;5034049;28;19913;-76
2023/01/20 07:02:29;;;;;;;;;;;;;;;;;;5033963;28;19913;-76
2023/01/20 07:04:55;;;;;;;;;;;;;;;;;;5032666;28;19916;-76
2023/01/20 07:07:21;;;;;;;;;;;;;;;;;;5033806;28;20356;-76
2023/01/20 07:09:47;;;;;;;;;;;;;;;;;;5033856;28;20381;-75
2023/01/20 07:12:13;;;;;;;;;;;;;;;;;;5033821;28;19916;-77
2023/01/20 07:14:39;;;;;;;;;;;;;;;;;;5034456;28;19910;-76
2023/01/20 07:17:05;;;;;;;;;;;;;;;;;;5034298;28;20377;-76
2023/01/20 07:19:31;;;;;;;;;;;;;;;;;;5032500;28;19909;-76
2023/01/20 07:21:57;;;;;;;;;;;;;;;;;;5033889;28;20274;-76
2023/01/20 07:24:23;;;;;;;;;;;;;;;;;;5033660;28;19909;-76
2023/01/20 07:26:49;;;;;;;;;;;;;;;;;;5033781;28;19920;-77
2023/01/20 07:29:15;;;;;;;;;;;;;;;;;;5034271;28;19913;-76
2023/01/20 07:31:41;;;;;;;;;;;;;;;;;;5033726;28;19916;-76
2023/01/20 07:34:06;;;;;;;;;;;;;;;;;;5033738;28;19909;-77
2023/01/20 07:36:32;;;;;;;;;;;;;;;;;;5033611;28;19909;-76
2023/01/20 07:38:58;;;;;;;;;;;;;;;;;;5033521;28;19916;-76
2023/01/20 07:41:24;;;;;;;;;;;;;;;;;;5033732;28;19980;-76
2023/01/20 07:43:50;;;;;;;;;;;;;;;;;;5033649;28;20496;-77
2023/01/20 07:46:16;;;;;;;;;;;;;;;;;;5034815;28;20274;-76
2023/01/20 07:48:42;;;;;;;;;;;;;;;;;;5037077;28;19916;-76
2023/01/20 07:51:08;;;;;;;;;;;;;;;;;;5037360;28;19909;-76
2023/01/20 07:53:34;;;;;;;;;;;;;;;;;;5036925;28;19909;-75
2023/01/20 07:56:00;;;;;;;;;;;;;;;;;;5036878;28;19913;-76
2023/01/20 07:58:26;;;;;;;;;;;;;;;;;;5036973;28;19909;-76
2023/01/20 08:00:52;;;;;;;;;;;;;;;;;;5037015;28;19909;-76
2023/01/20 08:03:18;;;;;;;;;;;;;;;;;;5037002;28;19992;-76
2023/01/20 08:05:44;;;;;;;;;;;;;;;;;;5036861;28;19963;-76
2023/01/20 08:08:10;;;;;;;;;;;;;;;;;;5036592;28;20019;-76
2023/01/20 08:10:39;;;;;;;;;;;;;;;;;;5036616;28;19937;-76
2023/01/20 08:13:05;;;;;;;;;;;;;;;;;;5035214;28;19963;-76
2023/01/20 08:15:31;;;;;;;;;;;;;;;;;;5036481;28;19909;-76
2023/01/20 08:17:58;;;;;;;;;;;;;;;;;;5035096;28;19910;-76
2023/01/20 08:20:24;;;;;;;;;;;;;;;;;;5036393;28;19916;-77
2023/01/20 08:22:50;;;;;;;;;;;;;;;;;;5035117;28;19913;-76
2023/01/20 08:25:16;;;;;;;;;;;;;;;;;;5035964;28;19916;-76
2023/01/20 08:27:42;;;;;;;;;;;;;;;;;;5036139;28;19909;-76
2023/01/20 08:30:08;;;;;;;;;;;;;;;;;;5034930;28;19947;-77
2023/01/20 08:32:33;;;;;;;;;;;;;;;;;;5036021;28;19955;-76
2023/01/20 08:34:59;;;;;;;;;;;;;;;;;;5036094;28;20069;-77
2023/01/20 08:37:25;;;;;;;;;;;;;;;;;;5036442;28;20312;-77
2023/01/20 08:39:51;;;;;;;;;;;;;;;;;;5035718;28;19928;-77
2023/01/20 08:42:17;;;;;;;;;;;;;;;;;;5036343;28;19909;-76
2023/01/20 08:44:43;;;;;;;;;;;;;;;;;;5035906;28;19916;-76
2023/01/20 08:47:09;;;;;;;;;;;;;;;;;;5035614;28;19948;-76
2023/01/20 08:49:35;;;;;;;;;;;;;;;;;;5035805;28;19913;-77
2023/01/20 08:52:02;;;;;;;;;;;;;;;;;;5035875;28;19964;-77
2023/01/20 08:54:33;;;;;;;;;;;;;;;;;;5035583;28;19909;-77
2023/01/20 08:56:59;;;;;;;;;;;;;;;;;;5035598;28;19917;-77
2023/01/20 08:59:25;;;;;;;;;;;;;;;;;;5035557;28;19909;-77
2023/01/20 09:01:51;;;;;;;;;;;;;;;;;;5035915;28;20004;-78
2023/01/20 09:04:17;;;;;;;;;;;;;;;;;;5036019;28;20411;-77
2023/01/20 09:06:42;;;;;;;;;;;;;;;;;;5035564;28;19914;-77
2023/01/20 09:09:08;;;;;;;;;;;;;;;;;;5035819;28;19909;-76
2023/01/20 09:11:34;;;;;;;;;;;;;;;;;;5035717;28;20433;-76
2023/01/20 09:14:00;;;;;;;;;;;;;;;;;;5035595;28;19940;-76
2023/01/20 09:16:26;;;;;;;;;;;;;;;;;;5035453;28;19912;-77
2023/01/20 09:18:52;;;;;;;;;;;;;;;;;;5035538;28;19935;-76
2023/01/20 09:21:18;;;;;;;;;;;;;;;;;;5035236;28;19909;-77
2023/01/20 09:23:46;;;;;;;;;;;;;;;;;;5035362;28;19916;-77
2023/01/20 09:26:12;;;;;;;;;;;;;;;;;;5034044;28;19921;-77
2023/01/20 09:28:38;;;;;;;;;;;;;;;;;;5035595;28;19932;-77
2023/01/20 09:31:04;;;;;;;;;;;;;;;;;;5033981;28;20361;-77
2023/01/20 09:33:30;;;;;;;;;;;;;;;;;;5035359;28;19920;-76
2023/01/20 09:35:56;;;;;;;;;;;;;;;;;;5035282;28;19909;-76
2023/01/20 09:43:54;;;;;;;;;;;;;;;;;;5034841;28;19962;-76
2023/01/20 09:46:20;;;;;;;;;;;;;;;;;;5035003;28;19923;-77
2023/01/20 09:54:15;;;;;;;;;;;;;;;;;;5034541;28;19916;-76
2023/01/20 09:56:41;;;;;;;;;;;;;;;;;;5034690;28;19909;-77
2023/01/20 09:59:07;;;;;;;;;;;;;;;;;;5035033;28;20000;-76
2023/01/20 10:01:33;;;;;;;;;;;;;;;;;;5034958;28;19962;-77
2023/01/20 10:04:01;;;;;;;;;;;;;;;;;;5033495;28;20366;-76
2023/01/20 10:06:26;;;;;;;;;;;;;;;;;;5034687;28;19952;-76
2023/01/20 10:08:52;;;;;;;;;;;;;;;;;;5034347;28;19986;-76
2023/01/20 10:11:18;;;;;;;;;;;;;;;;;;5034816;28;19909;-77
2023/01/20 10:13:46;;;;;;;;;;;;;;;;;;5034718;28;19924;-77
2023/01/20 10:16:12;;;;;;;;;;;;;;;;;;5034841;28;20003;-77
2023/01/20 10:18:37;;;;;;;;;;;;;;;;;;5034691;28;20408;-77
2023/01/20 10:21:03;;;;;;;;;;;;;;;;;;5034630;28;19915;-76
2023/01/20 10:23:29;;;;;;;;;;;;;;;;;;5034499;28;20003;-77
2023/01/20 10:25:55;;;;;;;;;;;;;;;;;;5034801;28;20384;-76
2023/01/20 10:28:21;;;;;;;;;;;;;;;;;;5034935;28;20365;-77
2023/01/20 10:30:47;;;;;;;;;;;;;;;;;;5034347;28;19981;-77
2023/01/20 10:33:13;;;;;;;;;;;;;;;;;;5034481;28;19909;-76
2023/01/20 10:35:39;;;;;;;;;;;;;;;;;;5034307;28;19910;-77
2023/01/20 10:38:05;;;;;;;;;;;;;;;;;;5034314;28;19938;-76
2023/01/20 10:40:31;;;;;;;;;;;;;;;;;;5034045;28;20016;-77
2023/01/20 10:42:57;;;;;;;;;;;;;;;;;;5034584;28;19971;-76
2023/01/20 10:45:23;;;;;;;;;;;;;;;;;;5033797;28;20369;-76
2023/01/20 10:47:49;;;;;;;;;;;;;;;;;;5032910;28;19932;-77
2023/01/20 10:50:15;;;;;;;;;;;;;;;;;;5034539;28;19909;-77
2023/01/20 10:52:40;;;;;;;;;;;;;;;;;;5034339;28;19920;-77
2023/01/20 10:55:06;;;;;;;;;;;;;;;;;;5033966;28;19909;-77
2023/01/20 10:57:32;;;;;;;;;;;;;;;;;;5034462;28;20004;-77
2023/01/20 10:59:58;;;;;;;;;;;;;;;;;;5034143;28;19916;-77
2023/01/20 11:02:24;;;;;;;;;;;;;;;;;;5034327;28;19909;-76
2023/01/20 11:04:50;;;;;;;;;;;;;;;;;;5034246;28;20340;-77
2023/01/20 11:07:16;;;;;;;;;;;;;;;;;;5033929;28;19928;-76
2023/01/20 11:09:42;;;;;;;;;;;;;;;;;;5034122;28;19913;-76
2023/01/20 11:12:08;;;;;;;;;;;;;;;;;;5034124;28;19916;-77
2023/01/20 11:14:34;;;;;;;;;;;;;;;;;;5034315;28;20008;-76
2023/01/20 11:17:00;;;;;;;;;;;;;;;;;;5033912;28;20010;-76
2023/01/20 11:19:26;;;;;;;;;;;;;;;;;;5032916;28;19909;-77
2023/01/20 11:21:52;;;;;;;;;;;;;;;;;;5036487;28;19909;-77
2023/01/20 11:24:18;;;;;;;;;;;;;;;;;;5037504;28;19916;-76
2023/01/20 11:26:44;;;;;;;;;;;;;;;;;;5038006;28;20292;-77
2023/01/20 11:29:10;;;;;;;;;;;;;;;;;;5037730;28;19963;-77
2023/01/20 11:31:36;;;;;;;;;;;;;;;;;;5037433;28;19913;-76
2023/01/20 11:34:02;;;;;;;;;;;;;;;;;;5036289;28;19910;-76
2023/01/20 11:36:28;;;;;;;;;;;;;;;;;;5037647;28;20000;-76
2023/01/20 11:38:53;;;;;;;;;;;;;;;;;;5037457;28;19916;-77
2023/01/20 11:41:20;;;;;;;;;;;;;;;;;;5035821;28;19963;-76
2023/01/20 11:43:46;;;;;;;;;;;;;;;;;;5035161;28;19916;-77
2023/01/20 11:46:11;;;;;;;;;;;;;;;;;;5036132;28;19921;-76
2023/01/20 11:48:37;;;;;;;;;;;;;;;;;;5036963;28;19944;-76
2023/01/20 11:51:03;;;;;;;;;;;;;;;;;;5036862;28;19918;-77
2023/01/20 11:53:32;;;;;;;;;;;;;;;;;;5037083;28;19913;-77
2023/01/20 11:55:58;;;;;;;;;;;;;;;;;;5037194;28;19915;-77
2023/01/20 11:58:24;;;;;;;;;;;;;;;;;;5035875;28;19916;-77
2023/01/20 12:00:50;;;;;;;;;;;;;;;;;;5035298;28;19917;-76
2023/01/20 12:03:16;;;;;;;;;;;;;;;;;;5035505;28;19909;-76
2023/01/20 12:05:42;;;;;;;;;;;;;;;;;;5035610;28;19963;-77
2023/01/20 12:08:08;;;;;;;;;;;;;;;;;;5035681;28;20301;-77
2023/01/20 12:10:34;;;;;;;;;;;;;;;;;;5035682;28;19909;-77
2023/01/20 12:13:00;;;;;;;;;;;;;;;;;;5036068;28;19913;-76
2023/01/20 12:15:26;;;;;;;;;;;;;;;;;;5036811;28;20381;-76
2023/01/20 12:17:52;;;;;;;;;;;;;;;;;;5035460;28;19910;-77
2023/01/20 12:20:18;;;;;;;;;;;;;;;;;;5035541;28;19917;-77
2023/01/20 12:22:44;;;;;;;;;;;;;;;;;;5036773;28;19948;-77
2023/01/20 12:25:12;;;;;;;;;;;;;;;;;;5034978;28;19914;-77
2023/01/20 12:27:38;;;;;;;;;;;;;;;;;;5036471;28;19920;-77
2023/01/20 12:30:04;;;;;;;;;;;;;;;;;;5036197;28;19909;-77
2023/01/20 12:32:32;;;;;;;;;;;;;;;;;;5035796;28;20404;-78
2023/01/20 12:34:58;;;;;;;;;;;;;;;;;;5036243;28;19945;-77
2023/01/20 12:37:23;;;;;;;;;;;;;;;;;;5035369;28;19916;-77
2023/01/20 12:39:49;;;;;;;;;;;;;;;;;;5035973;28;19925;-77
2023/01/20 12:42:15;;;;;;;;;;;;;;;;;;5036373;28;20296;-77
2023/01/20 12:44:41;;;;;;;;;;;;;;;;;;5036140;28;20328;-77
2023/01/20 12:47:07;;;;;;;;;;;;;;;;;;5036085;28;20361;-77
2023/01/20 12:49:33;;;;;;;;;;;;;;;;;;5034850;28;20058;-77
2023/01/20 12:51:59;;;;;;;;;;;;;;;;;;5036387;28;19948;-77
2023/01/20 12:54:25;;;;;;;;;;;;;;;;;;5036112;28;19913;-76
2023/01/20 12:56:51;;;;;;;;;;;;;;;;;;5034772;28;19920;-76
2023/01/20 12:59:17;;;;;;;;;;;;;;;;;;5036024;28;19909;-77
2023/01/20 13:01:43;;;;;;;;;;;;;;;;;;5036202;28;19935;-76
2023/01/20 13:04:08;;;;;;;;;;;;;;;;;;5035889;28;19913;-77
2023/01/20 13:06:34;;;;;;;;;;;;;;;;;;5035619;28;19965;-77
2023/01/20 13:09:00;;;;;;;;;;;;;;;;;;5035544;28;19913;-77
2023/01/20 13:11:26;;;;;;;;;;;;;;;;;;5034544;28;19909;-77
2023/01/20 13:13:52;;;;;;;;;;;;;;;;;;5034376;28;20412;-77
2023/01/20 13:16:18;;;;;;;;;;;;;;;;;;5036024;28;19909;-77
2023/01/20 13:18:44;;;;;;;;;;;;;;;;;;5035427;28;19909;-77
2023/01/20 13:21:10;;;;;;;;;;;;;;;;;;5033988;28;19912;-77
2023/01/20 13:23:36;;;;;;;;;;;;;;;;;;5035233;28;19913;-77
2023/01/20 13:26:02;;;;;;;;;;;;;;;;;;5035492;28;19913;-77
2023/01/20 13:28:28;;;;;;;;;;;;;;;;;;5035288;28;19915;-78
2023/01/20 13:30:54;;;;;;;;;;;;;;;;;;5035047;28;19996;-77
2023/01/20 13:33:20;;;;;;;;;;;;;;;;;;5035300;28;19955;-78
2023/01/20 13:35:46;;;;;;;;;;;;;;;;;;5034661;28;19909;-78
2023/01/20 13:38:12;;;;;;;;;;;;;;;;;;5034868;28;19909;-77
2023/01/20 13:40:38;;;;;;;;;;;;;;;;;;5034410;28;19928;-77
2023/01/20 13:43:03;;;;;;;;;;;;;;;;;;5034168;28;19913;-75
2023/01/20 13:45:29;;;;;;;;;;;;;;;;;;5034197;28;19909;-74
2023/01/20 13:47:59;;;;;;;;;;;;;;;;;;5034418;28;19916;-75
2023/01/20 13:50:24;;;;;;;;;;;;;;;;;;5035151;28;19913;-75
2023/01/20 13:52:51;;;;;;;;;;;;;;;;;;5034358;28;19956;-74
2023/01/20 13:55:16;;;;;;;;;;;;;;;;;;5034534;28;19952;-75
2023/01/20 13:57:42;;;;;;;;;;;;;;;;;;5034605;28;19963;-75
2023/01/20 14:00:08;;;;;;;;;;;;;;;;;;5032978;28;19909;-75
2023/01/20 14:02:36;;;;;;;;;;;;;;;;;;5034188;28;19909;-75
2023/01/20 14:05:02;;;;;;;;;;;;;;;;;;5034249;28;20377;-75
2023/01/20 14:07:28;;;;;;;;;;;;;;;;;;5034032;28;20012;-75
2023/01/20 14:09:54;;;;;;;;;;;;;;;;;;5034411;28;19959;-75
2023/01/20 14:12:20;;;;;;;;;;;;;;;;;;5034047;28;19916;-75
2023/01/20 14:14:48;;;;;;;;;;;;;;;;;;5032717;28;19916;-74
2023/01/20 14:17:14;;;;;;;;;;;;;;;;;;5034011;28;19917;-75
2023/01/20 14:19:40;;;;;;;;;;;;;;;;;;5034145;28;19916;-75
2023/01/20 14:22:06;;;;;;;;;;;;;;;;;;5034288;28;20301;-76
2023/01/20 14:24:32;;;;;;;;;;;;;;;;;;5033800;28;19910;-76
2023/01/20 14:26:58;;;;;;;;;;;;;;;;;;5033915;28;19920;-75
2023/01/20 14:29:24;;;;;;;;;;;;;;;;;;5033811;28;19916;-75
2023/01/20 14:31:49;;;;;;;;;;;;;;;;;;5033731;28;19996;-75
2023/01/20 14:34:15;;;;;;;;;;;;;;;;;;5033937;28;19909;-75
2023/01/20 14:36:41;;;;;;;;;;;;;;;;;;5033994;28;19977;-74
2023/01/20 14:39:08;;;;;;;;;;;;;;;;;;5032167;28;19909;-75
2023/01/20 14:41:34;;;;;;;;;;;;;;;;;;5033723;28;20349;-74
2023/01/20 14:44:00;;;;;;;;;;;;;;;;;;5033627;28;19948;-75
2023/01/20 14:46:26;;;;;;;;;;;;;;;;;;5033649;28;20328;-75
2023/01/20 14:48:52;;;;;;;;;;;;;;;;;;5033800;28;19909;-75
2023/01/20 14:51:18;;;;;;;;;;;;;;;;;;5033673;28;19956;-75
2023/01/20 14:53:45;;;;;;;;;;;;;;;;;;5033545;28;20381;-76
2023/01/20 14:56:11;;;;;;;;;;;;;;;;;;5037174;28;20347;-75
2023/01/20 14:58:37;;;;;;;;;;;;;;;;;;5037619;28;19992;-76
2023/01/20 15:01:03;;;;;;;;;;;;;;;;;;5037509;28;19947;-75
2023/01/20 15:03:29;;;;;;;;;;;;;;;;;;5037494;28;19913;-76
2023/01/20 15:05:55;;;;;;;;;;;;;;;;;;5037676;28;19920;-76
2023/01/20 15:08:21;;;;;;;;;;;;;;;;;;5036211;28;19920;-76
2023/01/20 15:10:47;;;;;;;;;;;;;;;;;;5037492;28;19909;-76
2023/01/20 15:13:12;;;;;;;;;;;;;;;;;;5037513;28;19909;-77
2023/01/20 15:15:38;;;;;;;;;;;;;;;;;;5037546;28;19909;-76
2023/01/20 15:18:04;;;;;;;;;;;;;;;;;;5037323;28;19909;-76
2023/01/20 15:20:31;;;;;;;;;;;;;;;;;;5037316;28;19920;-77
2023/01/20 15:22:57;;;;;;;;;;;;;;;;;;5037169;28;19909;-76
2023/01/20 15:25:23;;;;;;;;;;;;;;;;;;5037127;28;19960;-76
2023/01/20 15:27:49;;;;;;;;;;;;;;;;;;5037338;28;19913;-76
2023/01/20 15:30:15;;;;;;;;;;;;;;;;;;5037035;28;20423;-77
2023/01/20 15:32:40;;;;;;;;;;;;;;;;;;5037553;28;20373;-77
2023/01/20 15:35:07;;;;;;;;;;;;;;;;;;5036962;28;20000;-76
2023/01/20 15:37:32;;;;;;;;;;;;;;;;;;5036897;28;20320;-76
2023/01/20 15:39:58;;;;;;;;;;;;;;;;;;5036932;28;19921;-76
2023/01/20 15:42:24;;;;;;;;;;;;;;;;;;5037015;28;19917;-77
2023/01/20 15:44:50;;;;;;;;;;;;;;;;;;5035608;28;19913;-77
2023/01/20 15:47:16;;;;;;;;;;;;;;;;;;5037026;28;19913;-76
2023/01/20 15:49:42;;;;;;;;;;;;;;;;;;5036828;28;20004;-77
2023/01/20 15:52:08;;;;;;;;;;;;;;;;;;5036856;28;19983;-77
2023/01/20 15:54:34;;;;;;;;;;;;;;;;;;5035405;28;20443;-77
2023/01/20 15:57:00;;;;;;;;;;;;;;;;;;5036660;28;19913;-77
2023/01/20 15:59:28;;;;;;;;;;;;;;;;;;5036601;28;19916;-76
2023/01/20 16:01:54;;;;;;;;;;;;;;;;;;5035336;28;19912;-77
2023/01/20 16:04:20;;;;;;;;;;;;;;;;;;5036594;28;19919;-77
2023/01/20 16:06:46;;;;;;;;;;;;;;;;;;5034278;28;19921;-77
2023/01/20 16:09:12;;;;;;;;;;;;;;;;;;5036440;28;19952;-77
2023/01/20 16:11:40;;;;;;;;;;;;;;;;;;5036693;28;19909;-76
2023/01/20 16:14:07;;;;;;;;;;;;;;;;;;5036460;28;20051;-76
2023/01/20 16:16:33;;;;;;;;;;;;;;;;;;5036963;28;20369;-77
2023/01/20 16:18:59;;;;;;;;;;;;;;;;;;5036412;28;19909;-77
2023/01/20 16:21:24;;;;;;;;;;;;;;;;;;5036366;28;19917;-77
2023/01/20 16:23:50;;;;;;;;;;;;;;;;;;5036250;28;20381;-76
2023/01/20 16:26:16;;;;;;;;;;;;;;;;;;5035951;28;20024;-76
2023/01/20 16:28:42;;;;;;;;;;;;;;;;;;5036212;28;19948;-77
2023/01/20 16:31:08;;;;;;;;;;;;;;;;;;5036162;28;19959;-76
2023/01/20 16:33:34;;;;;;;;;;;;;;;;;;5035054;28;19909;-77
2023/01/20 16:36:00;;;;;;;;;;;;;;;;;;5036220;28;19948;-76
2023/01/20 16:38:27;;;;;;;;;;;;;;;;;;5036108;28;19909;-76
2023/01/20 16:40:53;;;;;;;;;;;;;;;;;;5035628;28;20457;-76
2023/01/20 16:43:19;;;;;;;;;;;;;;;;;;5036192;28;19949;-76
2023/01/20 16:45:45;;;;;;;;;;;;;;;;;;5034379;28;19909;-76
2023/01/20 16:48:11;;;;;;;;;;;;;;;;;;5036014;28;19963;-77